Terminal Aerodrome Forecast
Issued by NWS

Home | Current Version | Previous Version | Graphics & Text | Print | Product List | Glossary On
Versions: 1 2 3 4 5 6 7 8 9 10 11 12 13 14 15 16 17
251
FTUS43 KUNR 030428 AAC
TAFGCC
TAF AMD
KGCC 030428Z 0304/0324 25010KT P6SM BKN050
      TEMPO 0304/0307 2SM BR BKN004
     FM030700 29008KT P6SM SCT050 BKN100=

USA.gov is the U.S. government's official web portal to all federal, state and local government web resources and services.